Time;durP1;ratioP1;P1;durP2;ratioP2;P2;SDS_P1;SDS_P2;PMS_P1;PMS_P2;Temp;Humidity;BMP_temperature;BMP_pressure;BME280_temperature;BME280_humidity;BME280_pressure;Samples;Min_cycle;Max_cycle;Signal;HPM_P1;HPM_P2
2021/12/20 00:02:00;;;;;;;;;;;;;;;;;;5119632;28;19946;-65
2021/12/20 00:04:26;;;;;;;;;;;;;;;;;;5102232;28;19904;-65
2021/12/20 00:06:52;;;;;;;;;;;;;;;;;;5102225;28;19904;-64
2021/12/20 00:09:18;;;;;;;;;;;;;;;;;;5118841;28;19926;-66
2021/12/20 00:11:43;;;;;;;;;;;;;;;;;;5118869;28;19916;-67
2021/12/20 00:14:09;;;;;;;;;;;;;;;;;;5118827;28;19908;-65
2021/12/20 00:16:35;;;;;;;;;;;;;;;;;;5118784;28;19904;-66
2021/12/20 00:19:01;;;;;;;;;;;;;;;;;;5101996;28;19920;-67
2021/12/20 00:21:27;;;;;;;;;;;;;;;;;;5117245;28;19917;-68
2021/12/20 00:23:53;;;;;;;;;;;;;;;;;;5119115;28;19931;-68
2021/12/20 00:26:19;;;;;;;;;;;;;;;;;;5119467;28;19928;-67
2021/12/20 00:28:45;;;;;;;;;;;;;;;;;;5117764;28;19995;-68
2021/12/20 00:31:10;;;;;;;;;;;;;;;;;;5118992;28;19968;-68
2021/12/20 00:33:36;;;;;;;;;;;;;;;;;;5101746;28;19983;-67
2021/12/20 00:36:02;;;;;;;;;;;;;;;;;;5118420;28;20003;-67
2021/12/20 00:41:13;;;;;;;;;;;;;;;;;;5132313;28;19912;-68
2021/12/20 00:43:39;;;;;;;;;;;;;;;;;;5098318;28;19904;-68
2021/12/20 00:46:05;;;;;;;;;;;;;;;;;;5098534;28;20365;-69
2021/12/20 00:48:31;;;;;;;;;;;;;;;;;;5098126;28;19942;-68
2021/12/20 00:50:57;;;;;;;;;;;;;;;;;;5081407;28;19943;-68
2021/12/20 00:53:23;;;;;;;;;;;;;;;;;;5081533;28;19951;-68
2021/12/20 00:55:48;;;;;;;;;;;;;;;;;;5097987;28;19928;-68
2021/12/20 00:58:14;;;;;;;;;;;;;;;;;;5097994;28;19920;-68
2021/12/20 01:00:40;;;;;;;;;;;;;;;;;;5098393;28;19904;-71
2021/12/20 01:03:06;;;;;;;;;;;;;;;;;;5098460;28;19915;-68
2021/12/20 01:05:32;;;;;;;;;;;;;;;;;;5098860;28;19911;-67
2021/12/20 01:08:01;;;;;;;;;;;;;;;;;;5098131;28;19908;-68
2021/12/20 01:10:29;;;;;;;;;;;;;;;;;;5098002;28;19920;-69
2021/12/20 01:12:55;;;;;;;;;;;;;;;;;;5098207;28;19962;-69
2021/12/20 01:15:21;;;;;;;;;;;;;;;;;;5098727;28;19905;-70
2021/12/20 01:17:47;;;;;;;;;;;;;;;;;;5098409;28;19939;-69
2021/12/20 01:20:13;;;;;;;;;;;;;;;;;;5098399;28;19917;-67
2021/12/20 01:22:39;;;;;;;;;;;;;;;;;;5098316;28;19904;-68
2021/12/20 01:25:05;;;;;;;;;;;;;;;;;;5081226;28;19911;-68
2021/12/20 01:27:30;;;;;;;;;;;;;;;;;;5097901;28;20010;-69
2021/12/20 01:29:56;;;;;;;;;;;;;;;;;;5097908;28;19910;-70
2021/12/20 01:32:23;;;;;;;;;;;;;;;;;;5097936;28;19911;-68
2021/12/20 01:34:49;;;;;;;;;;;;;;;;;;5098097;28;19932;-68
2021/12/20 01:37:15;;;;;;;;;;;;;;;;;;5098018;28;20000;-68
2021/12/20 01:39:41;;;;;;;;;;;;;;;;;;5098126;28;19908;-69
2021/12/20 01:42:07;;;;;;;;;;;;;;;;;;5097853;28;19909;-69
2021/12/20 01:44:33;;;;;;;;;;;;;;;;;;5097825;28;19912;-69
2021/12/20 01:47:02;;;;;;;;;;;;;;;;;;5097439;28;19911;-69
2021/12/20 01:49:30;;;;;;;;;;;;;;;;;;5101027;28;19911;-68
2021/12/20 01:52:10;;;;;;;;;;;;;;;;;;5084487;28;19909;-68
2021/12/20 01:54:36;;;;;;;;;;;;;;;;;;5101379;28;19947;-69
2021/12/20 01:57:02;;;;;;;;;;;;;;;;;;5101348;28;19905;-69
2021/12/20 01:59:28;;;;;;;;;;;;;;;;;;5101367;28;19904;-71
2021/12/20 02:01:54;;;;;;;;;;;;;;;;;;5100855;28;19939;-68
2021/12/20 02:04:21;;;;;;;;;;;;;;;;;;5101118;28;19904;-68
2021/12/20 02:06:48;;;;;;;;;;;;;;;;;;5084203;28;19908;-69
2021/12/20 02:09:14;;;;;;;;;;;;;;;;;;5101501;28;19972;-70
2021/12/20 02:11:40;;;;;;;;;;;;;;;;;;5101438;28;19911;-68
2021/12/20 02:14:06;;;;;;;;;;;;;;;;;;5101493;28;19911;-68
2021/12/20 02:16:32;;;;;;;;;;;;;;;;;;5100874;28;19912;-68
2021/12/20 02:18:58;;;;;;;;;;;;;;;;;;5101067;28;19911;-68
2021/12/20 02:21:23;;;;;;;;;;;;;;;;;;5101584;28;19908;-68
2021/12/20 02:23:49;;;;;;;;;;;;;;;;;;5101231;28;19904;-67
2021/12/20 02:26:18;;;;;;;;;;;;;;;;;;5101021;28;19917;-67
2021/12/20 02:28:45;;;;;;;;;;;;;;;;;;5100714;28;19910;-68
2021/12/20 02:39:10;;;;;;;;;;;;;;;;;;5100828;28;19904;-67
2021/12/20 02:41:36;;;;;;;;;;;;;;;;;;5083561;28;19975;-67
2021/12/20 02:44:06;;;;;;;;;;;;;;;;;;5100723;28;19972;-68
2021/12/20 02:46:43;;;;;;;;;;;;;;;;;;5100442;28;19905;-68
2021/12/20 02:49:09;;;;;;;;;;;;;;;;;;5100112;28;19911;-69
2021/12/20 02:51:35;;;;;;;;;;;;;;;;;;5100464;28;19904;-68
2021/12/20 02:54:01;;;;;;;;;;;;;;;;;;5100579;28;19904;-68
2021/12/20 02:56:27;;;;;;;;;;;;;;;;;;5083358;28;19912;-69
2021/12/20 02:58:53;;;;;;;;;;;;;;;;;;5099656;28;19908;-69
2021/12/20 03:01:19;;;;;;;;;;;;;;;;;;5099314;28;19905;-69
2021/12/20 03:03:45;;;;;;;;;;;;;;;;;;5100517;28;19979;-68
2021/12/20 03:06:11;;;;;;;;;;;;;;;;;;5100037;28;19968;-69
2021/12/20 03:08:37;;;;;;;;;;;;;;;;;;5083154;28;19904;-69
2021/12/20 03:11:03;;;;;;;;;;;;;;;;;;5100317;28;19908;-68
2021/12/20 03:13:29;;;;;;;;;;;;;;;;;;5099503;28;19931;-68
2021/12/20 03:15:54;;;;;;;;;;;;;;;;;;5099827;28;19943;-68
2021/12/20 03:18:20;;;;;;;;;;;;;;;;;;5082889;28;19911;-69
2021/12/20 03:20:46;;;;;;;;;;;;;;;;;;5082955;28;19904;-69
2021/12/20 03:23:12;;;;;;;;;;;;;;;;;;5099429;28;19926;-68
2021/12/20 03:25:38;;;;;;;;;;;;;;;;;;5099410;28;19935;-69
2021/12/20 03:28:04;;;;;;;;;;;;;;;;;;5082783;28;19924;-67
2021/12/20 03:30:30;;;;;;;;;;;;;;;;;;5099259;28;19911;-68
2021/12/20 03:32:56;;;;;;;;;;;;;;;;;;5099699;28;19946;-68
2021/12/20 03:35:21;;;;;;;;;;;;;;;;;;5099928;28;19905;-68
2021/12/20 03:37:47;;;;;;;;;;;;;;;;;;5099850;28;19904;-67
2021/12/20 03:40:13;;;;;;;;;;;;;;;;;;5099624;28;19923;-69
2021/12/20 03:42:42;;;;;;;;;;;;;;;;;;5099383;28;19927;-67
2021/12/20 03:45:08;;;;;;;;;;;;;;;;;;5099690;28;19907;-69
2021/12/20 03:47:34;;;;;;;;;;;;;;;;;;5099461;28;19912;-70
2021/12/20 03:50:00;;;;;;;;;;;;;;;;;;5098963;28;19908;-67
2021/12/20 03:52:26;;;;;;;;;;;;;;;;;;5099296;28;19924;-69
2021/12/20 03:54:52;;;;;;;;;;;;;;;;;;5099390;28;19904;-68
2021/12/20 03:57:18;;;;;;;;;;;;;;;;;;5082238;28;19947;-68
2021/12/20 03:59:47;;;;;;;;;;;;;;;;;;5099097;28;19917;-68
2021/12/20 04:02:16;;;;;;;;;;;;;;;;;;5098936;28;19930;-67
2021/12/20 04:04:42;;;;;;;;;;;;;;;;;;5098982;28;19911;-68
2021/12/20 04:07:08;;;;;;;;;;;;;;;;;;5082095;28;19904;-68
2021/12/20 04:09:34;;;;;;;;;;;;;;;;;;5098990;28;19904;-68
2021/12/20 04:12:00;;;;;;;;;;;;;;;;;;5098953;28;19920;-68
2021/12/20 04:14:26;;;;;;;;;;;;;;;;;;5099113;28;19931;-68
2021/12/20 04:16:52;;;;;;;;;;;;;;;;;;5098616;28;19908;-68
2021/12/20 04:19:17;;;;;;;;;;;;;;;;;;5098384;28;19920;-68
2021/12/20 04:21:43;;;;;;;;;;;;;;;;;;5098516;28;19917;-68
2021/12/20 04:24:09;;;;;;;;;;;;;;;;;;5099146;28;19915;-67
2021/12/20 04:26:35;;;;;;;;;;;;;;;;;;5098432;28;19919;-68
2021/12/20 04:29:01;;;;;;;;;;;;;;;;;;5098449;28;19905;-69
2021/12/20 04:31:28;;;;;;;;;;;;;;;;;;5098524;28;19904;-68
2021/12/20 04:33:54;;;;;;;;;;;;;;;;;;5098287;28;19972;-70
2021/12/20 04:36:20;;;;;;;;;;;;;;;;;;5098821;28;19951;-68
2021/12/20 04:38:46;;;;;;;;;;;;;;;;;;5098170;28;19910;-68
2021/12/20 04:41:12;;;;;;;;;;;;;;;;;;5098299;28;19916;-68
2021/12/20 04:43:38;;;;;;;;;;;;;;;;;;5081673;28;19939;-67
2021/12/20 04:46:04;;;;;;;;;;;;;;;;;;5098024;28;19940;-69
2021/12/20 04:48:30;;;;;;;;;;;;;;;;;;5098395;28;19948;-68
2021/12/20 04:50:56;;;;;;;;;;;;;;;;;;5098354;28;19905;-70
2021/12/20 04:53:22;;;;;;;;;;;;;;;;;;5098173;28;19904;-69
2021/12/20 04:55:47;;;;;;;;;;;;;;;;;;5098137;28;19927;-69
2021/12/20 04:58:14;;;;;;;;;;;;;;;;;;5097995;28;19928;-69
2021/12/20 05:00:40;;;;;;;;;;;;;;;;;;5098217;28;19904;-68
2021/12/20 05:03:06;;;;;;;;;;;;;;;;;;5098001;28;19911;-68
2021/12/20 05:05:32;;;;;;;;;;;;;;;;;;5098331;28;19925;-69
2021/12/20 05:07:58;;;;;;;;;;;;;;;;;;5098478;28;19905;-68
2021/12/20 05:10:29;;;;;;;;;;;;;;;;;;5097968;28;19927;-67
2021/12/20 05:12:55;;;;;;;;;;;;;;;;;;5081266;28;19943;-67
2021/12/20 05:15:21;;;;;;;;;;;;;;;;;;5081125;28;19904;-67
2021/12/20 05:17:47;;;;;;;;;;;;;;;;;;5097989;28;19915;-70
2021/12/20 05:20:13;;;;;;;;;;;;;;;;;;5098237;28;19905;-67
2021/12/20 05:22:39;;;;;;;;;;;;;;;;;;5098546;28;19911;-67
2021/12/20 05:25:05;;;;;;;;;;;;;;;;;;5101708;28;19911;-67
2021/12/20 05:27:31;;;;;;;;;;;;;;;;;;5101817;28;19905;-68
2021/12/20 05:29:56;;;;;;;;;;;;;;;;;;5084955;28;19905;-69
2021/12/20 05:32:22;;;;;;;;;;;;;;;;;;5084790;28;19908;-68
2021/12/20 05:34:48;;;;;;;;;;;;;;;;;;5101639;28;19904;-68
2021/12/20 05:37:16;;;;;;;;;;;;;;;;;;5085073;28;19911;-68
2021/12/20 05:39:42;;;;;;;;;;;;;;;;;;5101485;28;19924;-68
2021/12/20 05:42:07;;;;;;;;;;;;;;;;;;5101630;28;19904;-68
2021/12/20 05:44:33;;;;;;;;;;;;;;;;;;5102032;28;19916;-68
2021/12/20 05:46:59;;;;;;;;;;;;;;;;;;5084310;28;19909;-68
2021/12/20 05:49:25;;;;;;;;;;;;;;;;;;5101700;28;19909;-68
2021/12/20 05:51:51;;;;;;;;;;;;;;;;;;5101327;28;19911;-68
2021/12/20 05:54:17;;;;;;;;;;;;;;;;;;5101202;28;19904;-68
2021/12/20 05:56:43;;;;;;;;;;;;;;;;;;5101132;28;19958;-68
2021/12/20 05:59:09;;;;;;;;;;;;;;;;;;5101802;28;19962;-68
2021/12/20 06:01:35;;;;;;;;;;;;;;;;;;5084380;28;19911;-68
2021/12/20 06:04:01;;;;;;;;;;;;;;;;;;5101025;28;19908;-67
2021/12/20 06:06:28;;;;;;;;;;;;;;;;;;5101728;28;19962;-68
2021/12/20 06:08:54;;;;;;;;;;;;;;;;;;5101671;28;19929;-67
2021/12/20 06:11:20;;;;;;;;;;;;;;;;;;5100895;28;19904;-68
2021/12/20 06:13:46;;;;;;;;;;;;;;;;;;5100731;28;19904;-68
2021/12/20 06:16:12;;;;;;;;;;;;;;;;;;5101517;28;19924;-67
2021/12/20 06:18:38;;;;;;;;;;;;;;;;;;5101270;28;20860;-68
2021/12/20 06:21:03;;;;;;;;;;;;;;;;;;5100703;28;19904;-69
2021/12/20 06:23:29;;;;;;;;;;;;;;;;;;5100879;28;19915;-69
2021/12/20 06:25:55;;;;;;;;;;;;;;;;;;5100959;28;19904;-68
2021/12/20 06:28:21;;;;;;;;;;;;;;;;;;5100767;28;19905;-66
2021/12/20 06:30:48;;;;;;;;;;;;;;;;;;5083861;28;19908;-66
2021/12/20 06:33:13;;;;;;;;;;;;;;;;;;5101015;28;19917;-68
2021/12/20 06:35:39;;;;;;;;;;;;;;;;;;5101071;28;19939;-67
2021/12/20 06:38:07;;;;;;;;;;;;;;;;;;5100698;28;19920;-68
2021/12/20 06:40:33;;;;;;;;;;;;;;;;;;5100221;28;19976;-68
2021/12/20 06:42:59;;;;;;;;;;;;;;;;;;5100523;28;19904;-69
2021/12/20 06:45:25;;;;;;;;;;;;;;;;;;5100372;28;19915;-69
2021/12/20 06:47:51;;;;;;;;;;;;;;;;;;5100042;28;19976;-69
2021/12/20 06:50:17;;;;;;;;;;;;;;;;;;5100160;28;19967;-68
2021/12/20 06:52:43;;;;;;;;;;;;;;;;;;5100351;28;19943;-68
2021/12/20 06:55:09;;;;;;;;;;;;;;;;;;5100063;28;19912;-69
2021/12/20 06:57:35;;;;;;;;;;;;;;;;;;5100148;28;19908;-69
2021/12/20 07:00:01;;;;;;;;;;;;;;;;;;5083335;28;19965;-68
2021/12/20 07:02:27;;;;;;;;;;;;;;;;;;5100490;28;19904;-67
2021/12/20 07:04:53;;;;;;;;;;;;;;;;;;5083380;28;19924;-65
2021/12/20 07:07:19;;;;;;;;;;;;;;;;;;5099815;28;19924;-68
2021/12/20 07:09:45;;;;;;;;;;;;;;;;;;5097731;28;19904;-69
2021/12/20 07:12:11;;;;;;;;;;;;;;;;;;5100466;28;19908;-69
2021/12/20 07:14:38;;;;;;;;;;;;;;;;;;5082715;28;19924;-69
2021/12/20 07:17:04;;;;;;;;;;;;;;;;;;5082808;28;19909;-67
2021/12/20 07:19:30;;;;;;;;;;;;;;;;;;5099556;28;19911;-67
2021/12/20 07:21:56;;;;;;;;;;;;;;;;;;5082963;28;19915;-68
2021/12/20 07:24:22;;;;;;;;;;;;;;;;;;5082770;28;19904;-68
2021/12/20 07:26:48;;;;;;;;;;;;;;;;;;5099588;28;19904;-68
2021/12/20 07:29:14;;;;;;;;;;;;;;;;;;5099317;28;19939;-67
2021/12/20 07:31:40;;;;;;;;;;;;;;;;;;5099556;28;19911;-68
2021/12/20 07:34:10;;;;;;;;;;;;;;;;;;5099418;28;19924;-69
2021/12/20 07:36:35;;;;;;;;;;;;;;;;;;5082619;28;19926;-68
2021/12/20 07:39:01;;;;;;;;;;;;;;;;;;5099467;28;19968;-68
2021/12/20 07:41:27;;;;;;;;;;;;;;;;;;5099752;28;19940;-68
2021/12/20 07:43:53;;;;;;;;;;;;;;;;;;5099778;28;19912;-68
2021/12/20 07:46:19;;;;;;;;;;;;;;;;;;5081899;28;19915;-70
2021/12/20 07:48:45;;;;;;;;;;;;;;;;;;5099888;28;19904;-68
2021/12/20 07:51:11;;;;;;;;;;;;;;;;;;5099082;28;19927;-68
2021/12/20 07:53:37;;;;;;;;;;;;;;;;;;5082359;28;19916;-68
2021/12/20 07:56:03;;;;;;;;;;;;;;;;;;5099018;28;19920;-68
2021/12/20 07:58:28;;;;;;;;;;;;;;;;;;5099439;28;19928;-68
2021/12/20 08:00:55;;;;;;;;;;;;;;;;;;5098729;28;19931;-68
2021/12/20 08:03:21;;;;;;;;;;;;;;;;;;5098697;28;19904;-68
2021/12/20 08:05:47;;;;;;;;;;;;;;;;;;5099317;28;19904;-68
2021/12/20 08:08:12;;;;;;;;;;;;;;;;;;5098444;28;19904;-68
2021/12/20 08:10:38;;;;;;;;;;;;;;;;;;5099215;28;19935;-67
2021/12/20 08:13:04;;;;;;;;;;;;;;;;;;5098748;28;19911;-67
2021/12/20 08:15:30;;;;;;;;;;;;;;;;;;5099087;28;19911;-69
2021/12/20 08:17:56;;;;;;;;;;;;;;;;;;5099283;28;19912;-69
2021/12/20 08:20:22;;;;;;;;;;;;;;;;;;5098658;28;19905;-69
2021/12/20 08:22:48;;;;;;;;;;;;;;;;;;5099439;28;19920;-66
2021/12/20 08:25:14;;;;;;;;;;;;;;;;;;5098672;28;20015;-67
2021/12/20 08:27:40;;;;;;;;;;;;;;;;;;5098490;28;19984;-67
2021/12/20 08:30:06;;;;;;;;;;;;;;;;;;5098346;28;19931;-68
2021/12/20 08:32:32;;;;;;;;;;;;;;;;;;5081839;28;19971;-67
2021/12/20 08:34:57;;;;;;;;;;;;;;;;;;5098709;28;19935;-66
2021/12/20 08:37:23;;;;;;;;;;;;;;;;;;5098456;28;19920;-67
2021/12/20 08:39:49;;;;;;;;;;;;;;;;;;5098469;28;19968;-67
2021/12/20 08:42:15;;;;;;;;;;;;;;;;;;5098710;28;19921;-67
2021/12/20 08:44:41;;;;;;;;;;;;;;;;;;5098161;28;19912;-68
2021/12/20 08:47:07;;;;;;;;;;;;;;;;;;5098044;28;19904;-66
2021/12/20 08:49:33;;;;;;;;;;;;;;;;;;5098750;28;19924;-67
2021/12/20 08:52:00;;;;;;;;;;;;;;;;;;5098246;28;19920;-67
2021/12/20 08:54:27;;;;;;;;;;;;;;;;;;5098358;28;19911;-68
2021/12/20 08:56:53;;;;;;;;;;;;;;;;;;5115103;28;19904;-69
2021/12/20 08:59:19;;;;;;;;;;;;;;;;;;5101264;28;19926;-68
2021/12/20 09:01:45;;;;;;;;;;;;;;;;;;5102347;28;19904;-68
2021/12/20 09:04:11;;;;;;;;;;;;;;;;;;5102389;28;19991;-69
2021/12/20 09:06:39;;;;;;;;;;;;;;;;;;5102332;28;19980;-69
2021/12/20 09:09:05;;;;;;;;;;;;;;;;;;5102181;28;19976;-69
2021/12/20 09:11:31;;;;;;;;;;;;;;;;;;5102140;28;19905;-69
2021/12/20 09:13:57;;;;;;;;;;;;;;;;;;5102474;28;19996;-70
2021/12/20 09:16:23;;;;;;;;;;;;;;;;;;5102316;28;19940;-69
2021/12/20 09:18:49;;;;;;;;;;;;;;;;;;5085303;28;19930;-70
2021/12/20 09:21:15;;;;;;;;;;;;;;;;;;5101761;28;19908;-69
2021/12/20 09:23:41;;;;;;;;;;;;;;;;;;5102045;28;19983;-69
2021/12/20 09:26:07;;;;;;;;;;;;;;;;;;5101895;28;19963;-70
2021/12/20 09:28:34;;;;;;;;;;;;;;;;;;5102510;28;19904;-70
2021/12/20 09:30:59;;;;;;;;;;;;;;;;;;5102328;28;19908;-69
2021/12/20 09:33:25;;;;;;;;;;;;;;;;;;5102338;28;19930;-69
2021/12/20 09:35:53;;;;;;;;;;;;;;;;;;5101545;28;19904;-69
2021/12/20 09:38:19;;;;;;;;;;;;;;;;;;5102295;28;19911;-68
2021/12/20 09:41:12;;;;;;;;;;;;;;;;;;5101357;28;19904;-69
2021/12/20 09:43:31;;;;;;;;;;;;;;;;;;5101452;28;19911;-69
2021/12/20 09:45:57;;;;;;;;;;;;;;;;;;5084599;28;19924;-70
2021/12/20 09:48:23;;;;;;;;;;;;;;;;;;5101759;28;19905;-68
2021/12/20 09:50:49;;;;;;;;;;;;;;;;;;5101275;28;19905;-69
2021/12/20 09:53:14;;;;;;;;;;;;;;;;;;5084757;28;19909;-69
2021/12/20 09:55:40;;;;;;;;;;;;;;;;;;5101155;28;19976;-69
2021/12/20 09:58:06;;;;;;;;;;;;;;;;;;5101898;28;19976;-69
2021/12/20 10:00:32;;;;;;;;;;;;;;;;;;5101842;28;19971;-69
2021/12/20 10:02:58;;;;;;;;;;;;;;;;;;5101148;28;19911;-69
2021/12/20 10:05:24;;;;;;;;;;;;;;;;;;5101074;28;19904;-69
2021/12/20 10:07:51;;;;;;;;;;;;;;;;;;5101510;28;19911;-68
2021/12/20 10:10:17;;;;;;;;;;;;;;;;;;5100976;28;19957;-68
2021/12/20 10:12:43;;;;;;;;;;;;;;;;;;5101345;28;19924;-69
2021/12/20 10:15:10;;;;;;;;;;;;;;;;;;5084228;28;19905;-69
2021/12/20 10:17:36;;;;;;;;;;;;;;;;;;5100712;28;19908;-69
2021/12/20 10:20:02;;;;;;;;;;;;;;;;;;5101047;28;19912;-69
2021/12/20 10:22:28;;;;;;;;;;;;;;;;;;5100808;28;19908;-70
2021/12/20 10:24:54;;;;;;;;;;;;;;;;;;5100844;28;19939;-68
2021/12/20 10:27:20;;;;;;;;;;;;;;;;;;5100536;28;19905;-68
2021/12/20 10:29:46;;;;;;;;;;;;;;;;;;5101026;28;19904;-69
2021/12/20 10:32:12;;;;;;;;;;;;;;;;;;5101094;28;19905;-68
2021/12/20 10:34:37;;;;;;;;;;;;;;;;;;5101010;28;19915;-68
2021/12/20 10:37:03;;;;;;;;;;;;;;;;;;5100947;28;19935;-69
2021/12/20 10:39:29;;;;;;;;;;;;;;;;;;5100547;28;19911;-69
2021/12/20 10:41:59;;;;;;;;;;;;;;;;;;5100651;28;19904;-68
2021/12/20 10:44:25;;;;;;;;;;;;;;;;;;5100761;28;19912;-68
2021/12/20 10:46:51;;;;;;;;;;;;;;;;;;5099984;28;19960;-69
2021/12/20 10:49:18;;;;;;;;;;;;;;;;;;5100217;28;19963;-68
2021/12/20 10:51:44;;;;;;;;;;;;;;;;;;5100401;28;19916;-69
2021/12/20 10:54:12;;;;;;;;;;;;;;;;;;5100794;28;19909;-68
2021/12/20 10:56:38;;;;;;;;;;;;;;;;;;5100704;28;19911;-68
2021/12/20 10:59:04;;;;;;;;;;;;;;;;;;5100152;28;19924;-67
2021/12/20 11:02:16;;;;;;;;;;;;;;;;;;5100150;28;19926;-69
2021/12/20 11:04:34;;;;;;;;;;;;;;;;;;5099463;28;20011;-68
2021/12/20 11:09:26;;;;;;;;;;;;;;;;;;5099559;28;19963;-67
2021/12/20 11:11:52;;;;;;;;;;;;;;;;;;5098791;28;19943;-67
2021/12/20 11:14:17;;;;;;;;;;;;;;;;;;5081210;28;19920;-66
2021/12/20 11:16:43;;;;;;;;;;;;;;;;;;5099016;28;19919;-67
2021/12/20 11:19:09;;;;;;;;;;;;;;;;;;5098683;28;19940;-67
2021/12/20 11:21:35;;;;;;;;;;;;;;;;;;5097764;28;19920;-67
2021/12/20 11:24:01;;;;;;;;;;;;;;;;;;5099232;28;19928;-67
2021/12/20 11:26:27;;;;;;;;;;;;;;;;;;5082273;28;19939;-69
2021/12/20 11:28:53;;;;;;;;;;;;;;;;;;5099257;28;19911;-67
2021/12/20 11:31:19;;;;;;;;;;;;;;;;;;5099082;28;19920;-69
2021/12/20 11:33:45;;;;;;;;;;;;;;;;;;5098739;28;19909;-68
2021/12/20 11:36:11;;;;;;;;;;;;;;;;;;5098459;28;19927;-68
2021/12/20 11:38:37;;;;;;;;;;;;;;;;;;5098840;28;19904;-68
2021/12/20 11:41:03;;;;;;;;;;;;;;;;;;5099366;28;19927;-70
2021/12/20 11:43:29;;;;;;;;;;;;;;;;;;5082316;28;19908;-71
2021/12/20 11:45:54;;;;;;;;;;;;;;;;;;5098863;28;19908;-69
2021/12/20 11:48:20;;;;;;;;;;;;;;;;;;5098894;28;19936;-69
2021/12/20 11:50:46;;;;;;;;;;;;;;;;;;5099023;28;19936;-69
2021/12/20 11:53:12;;;;;;;;;;;;;;;;;;5099109;28;19911;-68
2021/12/20 11:55:39;;;;;;;;;;;;;;;;;;5098888;28;19904;-70
2021/12/20 11:58:06;;;;;;;;;;;;;;;;;;5099021;28;19980;-69
2021/12/20 12:00:31;;;;;;;;;;;;;;;;;;5099028;28;19942;-69
2021/12/20 12:02:57;;;;;;;;;;;;;;;;;;5082115;28;19920;-69
2021/12/20 12:05:23;;;;;;;;;;;;;;;;;;5082326;28;19920;-69
2021/12/20 12:07:49;;;;;;;;;;;;;;;;;;5082298;28;19926;-67
2021/12/20 12:10:15;;;;;;;;;;;;;;;;;;5081879;28;19923;-69
2021/12/20 12:12:43;;;;;;;;;;;;;;;;;;5098898;28;19904;-67
2021/12/20 12:15:09;;;;;;;;;;;;;;;;;;5082215;28;20019;-67
2021/12/20 12:17:36;;;;;;;;;;;;;;;;;;5099190;28;19906;-67
2021/12/20 12:20:02;;;;;;;;;;;;;;;;;;5099328;28;19943;-67
2021/12/20 12:22:28;;;;;;;;;;;;;;;;;;5098305;28;19911;-68
2021/12/20 12:24:54;;;;;;;;;;;;;;;;;;5098777;28;19916;-67
2021/12/20 12:27:20;;;;;;;;;;;;;;;;;;5098836;28;19904;-68
2021/12/20 12:29:46;;;;;;;;;;;;;;;;;;5098244;28;19943;-69
2021/12/20 12:32:12;;;;;;;;;;;;;;;;;;5098566;28;19927;-68
2021/12/20 12:34:38;;;;;;;;;;;;;;;;;;5098555;28;19927;-67
2021/12/20 12:37:04;;;;;;;;;;;;;;;;;;5099103;28;19934;-67
2021/12/20 12:39:30;;;;;;;;;;;;;;;;;;5098080;28;19904;-66
2021/12/20 12:41:59;;;;;;;;;;;;;;;;;;5097542;28;19905;-69
2021/12/20 12:44:27;;;;;;;;;;;;;;;;;;5098564;28;19908;-69
2021/12/20 12:46:53;;;;;;;;;;;;;;;;;;5098317;28;19904;-69
2021/12/20 12:49:19;;;;;;;;;;;;;;;;;;5106962;28;19926;-66
2021/12/20 12:51:45;;;;;;;;;;;;;;;;;;5119242;28;19928;-68
2021/12/20 12:54:11;;;;;;;;;;;;;;;;;;5118689;28;19968;-68
2021/12/20 12:56:38;;;;;;;;;;;;;;;;;;5118269;28;19946;-69
2021/12/20 12:59:03;;;;;;;;;;;;;;;;;;5118400;28;19912;-68
2021/12/20 13:01:30;;;;;;;;;;;;;;;;;;5118239;28;19935;-67
2021/12/20 13:03:56;;;;;;;;;;;;;;;;;;5126611;28;19923;-68
2021/12/20 13:06:22;;;;;;;;;;;;;;;;;;5115407;28;19904;-68
2021/12/20 13:08:48;;;;;;;;;;;;;;;;;;5118155;28;19942;-68
2021/12/20 13:11:14;;;;;;;;;;;;;;;;;;5117482;28;19912;-67
2021/12/20 13:13:51;;;;;;;;;;;;;;;;;;5117761;28;19911;-67
2021/12/20 13:16:23;;;;;;;;;;;;;;;;;;5128343;28;19908;-66
2021/12/20 13:18:51;;;;;;;;;;;;;;;;;;5132433;28;19904;-67
2021/12/20 13:21:21;;;;;;;;;;;;;;;;;;5118640;28;19904;-66
2021/12/20 13:23:49;;;;;;;;;;;;;;;;;;5118238;28;19935;-67
2021/12/20 13:26:17;;;;;;;;;;;;;;;;;;5118778;28;19911;-67
2021/12/20 13:28:43;;;;;;;;;;;;;;;;;;5118675;28;19908;-68
2021/12/20 13:31:09;;;;;;;;;;;;;;;;;;5117934;28;19910;-68
2021/12/20 13:33:36;;;;;;;;;;;;;;;;;;5118316;28;19975;-68
2021/12/20 13:36:02;;;;;;;;;;;;;;;;;;5100965;28;19963;-69
2021/12/20 13:38:29;;;;;;;;;;;;;;;;;;5117746;28;19923;-67
2021/12/20 13:40:54;;;;;;;;;;;;;;;;;;5117622;28;19920;-67
2021/12/20 13:43:42;;;;;;;;;;;;;;;;;;5118390;28;19939;-68
2021/12/20 13:46:09;;;;;;;;;;;;;;;;;;5119414;28;19908;-68
2021/12/20 13:48:35;;;;;;;;;;;;;;;;;;5121950;28;19931;-68
2021/12/20 13:51:01;;;;;;;;;;;;;;;;;;5120822;28;19931;-66
2021/12/20 13:53:27;;;;;;;;;;;;;;;;;;5104658;28;19928;-68
2021/12/20 13:55:53;;;;;;;;;;;;;;;;;;5122186;28;19928;-68
2021/12/20 13:58:19;;;;;;;;;;;;;;;;;;5121986;28;19929;-68
2021/12/20 14:00:44;;;;;;;;;;;;;;;;;;5156036;27;19904;-68
2021/12/20 14:03:10;;;;;;;;;;;;;;;;;;5155058;27;19984;-68
2021/12/20 14:05:37;;;;;;;;;;;;;;;;;;5121119;28;19968;-68
2021/12/20 14:08:03;;;;;;;;;;;;;;;;;;5121303;28;19972;-67
2021/12/20 14:10:29;;;;;;;;;;;;;;;;;;5121164;28;19904;-67
2021/12/20 14:12:58;;;;;;;;;;;;;;;;;;5120851;28;19911;-67
2021/12/20 14:15:24;;;;;;;;;;;;;;;;;;5121888;28;19928;-67
2021/12/20 14:17:50;;;;;;;;;;;;;;;;;;5120736;28;19923;-68
2021/12/20 14:20:16;;;;;;;;;;;;;;;;;;5120597;28;19904;-68
2021/12/20 14:22:42;;;;;;;;;;;;;;;;;;5120542;28;19904;-69
2021/12/20 14:25:08;;;;;;;;;;;;;;;;;;5120659;28;19904;-69
2021/12/20 14:27:34;;;;;;;;;;;;;;;;;;5120277;28;19923;-67
2021/12/20 14:30:02;;;;;;;;;;;;;;;;;;5120562;28;19904;-68
2021/12/20 14:32:29;;;;;;;;;;;;;;;;;;5120499;28;19904;-69
2021/12/20 14:34:54;;;;;;;;;;;;;;;;;;5120489;28;19991;-69
2021/12/20 14:37:20;;;;;;;;;;;;;;;;;;5120818;28;19923;-67
2021/12/20 14:39:46;;;;;;;;;;;;;;;;;;5103312;28;19908;-67
2021/12/20 14:42:14;;;;;;;;;;;;;;;;;;5121215;28;19915;-68
2021/12/20 14:44:43;;;;;;;;;;;;;;;;;;5120692;28;19904;-69
2021/12/20 14:47:18;;;;;;;;;;;;;;;;;;5102082;28;19908;-67
2021/12/20 14:49:51;;;;;;;;;;;;;;;;;;5120653;28;19979;-68
2021/12/20 14:52:17;;;;;;;;;;;;;;;;;;5120325;28;19911;-68
2021/12/20 14:54:43;;;;;;;;;;;;;;;;;;5120272;28;19904;-68
2021/12/20 14:57:09;;;;;;;;;;;;;;;;;;5102972;28;19908;-68
2021/12/20 14:59:35;;;;;;;;;;;;;;;;;;5120861;28;19904;-69
2021/12/20 15:02:01;;;;;;;;;;;;;;;;;;5120420;28;19938;-68
2021/12/20 15:04:27;;;;;;;;;;;;;;;;;;5120380;28;19907;-67
2021/12/20 15:06:54;;;;;;;;;;;;;;;;;;5120595;28;19965;-68
2021/12/20 15:09:20;;;;;;;;;;;;;;;;;;5120746;28;19904;-68
2021/12/20 15:11:46;;;;;;;;;;;;;;;;;;5120264;28;19925;-68
2021/12/20 15:14:11;;;;;;;;;;;;;;;;;;5119942;28;19904;-69
2021/12/20 15:16:37;;;;;;;;;;;;;;;;;;5120414;28;19946;-65
2021/12/20 15:19:03;;;;;;;;;;;;;;;;;;5118858;28;19942;-67
2021/12/20 15:21:30;;;;;;;;;;;;;;;;;;5119848;28;19914;-68
2021/12/20 15:23:56;;;;;;;;;;;;;;;;;;5120147;28;19904;-65
2021/12/20 15:26:22;;;;;;;;;;;;;;;;;;5118910;28;19930;-68
2021/12/20 15:28:48;;;;;;;;;;;;;;;;;;5144665;27;19920;-68
2021/12/20 15:31:14;;;;;;;;;;;;;;;;;;5102143;28;19934;-67
2021/12/20 15:33:40;;;;;;;;;;;;;;;;;;5116840;28;19920;-66
2021/12/20 15:36:05;;;;;;;;;;;;;;;;;;5115452;28;19959;-66
2021/12/20 15:38:31;;;;;;;;;;;;;;;;;;5130719;28;19920;-66
2021/12/20 15:40:57;;;;;;;;;;;;;;;;;;5117150;28;19914;-66
2021/12/20 15:43:23;;;;;;;;;;;;;;;;;;5118417;28;19904;-70
2021/12/20 15:45:49;;;;;;;;;;;;;;;;;;5101417;28;19904;-68
2021/12/20 15:48:15;;;;;;;;;;;;;;;;;;5118900;28;19904;-70
2021/12/20 15:50:43;;;;;;;;;;;;;;;;;;5119347;28;19919;-69
2021/12/20 15:53:09;;;;;;;;;;;;;;;;;;5099513;28;19910;-68
2021/12/20 15:55:36;;;;;;;;;;;;;;;;;;5101997;28;19934;-70
2021/12/20 15:58:02;;;;;;;;;;;;;;;;;;5127250;28;19942;-69
2021/12/20 16:00:28;;;;;;;;;;;;;;;;;;5116006;28;19928;-69
2021/12/20 16:02:54;;;;;;;;;;;;;;;;;;5118640;28;19945;-70
2021/12/20 16:05:20;;;;;;;;;;;;;;;;;;5118735;28;19904;-68
2021/12/20 16:07:46;;;;;;;;;;;;;;;;;;5118332;28;19911;-67
2021/12/20 16:10:12;;;;;;;;;;;;;;;;;;5126105;28;19919;-69
2021/12/20 16:12:38;;;;;;;;;;;;;;;;;;5099389;28;19986;-69
2021/12/20 16:15:04;;;;;;;;;;;;;;;;;;5118862;28;19919;-69
2021/12/20 16:17:30;;;;;;;;;;;;;;;;;;5118877;28;19911;-68
2021/12/20 16:19:56;;;;;;;;;;;;;;;;;;5119043;28;19915;-73
2021/12/20 16:22:23;;;;;;;;;;;;;;;;;;5119346;28;19904;-69
2021/12/20 16:24:49;;;;;;;;;;;;;;;;;;5119165;28;19911;-69
2021/12/20 16:27:14;;;;;;;;;;;;;;;;;;5119255;28;19908;-69
2021/12/20 16:29:40;;;;;;;;;;;;;;;;;;5119418;28;19908;-69
2021/12/20 16:32:06;;;;;;;;;;;;;;;;;;5118121;28;19911;-68
2021/12/20 16:34:32;;;;;;;;;;;;;;;;;;5118153;28;19959;-68
2021/12/20 16:36:58;;;;;;;;;;;;;;;;;;5118167;28;19904;-68
2021/12/20 16:39:27;;;;;;;;;;;;;;;;;;5101512;28;19923;-68
2021/12/20 16:41:53;;;;;;;;;;;;;;;;;;5101971;28;19967;-68
2021/12/20 16:44:22;;;;;;;;;;;;;;;;;;5118311;28;19915;-69
2021/12/20 16:47:07;;;;;;;;;;;;;;;;;;5117996;28;19926;-67
2021/12/20 16:49:35;;;;;;;;;;;;;;;;;;5101463;28;19915;-68
2021/12/20 16:52:03;;;;;;;;;;;;;;;;;;5117841;28;19911;-68
2021/12/20 16:54:29;;;;;;;;;;;;;;;;;;5118449;28;19904;-69